createdAt,value
2024-01-08T00:03:17.466Z,-1.33
2024-01-08T00:08:20.235Z,-1.37
2024-01-08T00:13:22.128Z,-1.41
2024-01-08T00:18:24.148Z,-1.36
2024-01-08T00:23:26.393Z,-1.31
2024-01-08T00:28:28.306Z,-1.27
2024-01-08T00:33:30.288Z,-1.23
2024-01-08T00:38:32.272Z,-1.22
2024-01-08T00:43:34.324Z,-1.25
2024-01-08T00:48:36.336Z,-1.21
2024-01-08T00:53:38.428Z,-1.19
2024-01-08T00:58:43.349Z,-1.16
2024-01-08T01:03:45.410Z,-1.14
2024-01-08T01:08:47.705Z,-1.17
2024-01-08T01:13:49.731Z,-1.18
2024-01-08T01:18:51.897Z,-1.17
2024-01-08T01:23:53.990Z,-1.15
2024-01-08T01:28:56.007Z,-1.12
2024-01-08T01:33:58.169Z,-1.06
2024-01-08T01:39:00.569Z,-1.08
2024-01-08T01:44:02.552Z,-1.10
2024-01-08T01:49:05.893Z,-1.11
2024-01-08T01:54:09.601Z,-1.14
2024-01-08T01:59:12.065Z,-1.19
2024-01-08T02:04:16.817Z,-1.25
2024-01-08T02:09:19.694Z,-1.29
2024-01-08T02:14:21.646Z,-1.51
2024-01-08T02:19:23.599Z,-1.64
2024-01-08T02:24:30.065Z,-1.69
2024-01-08T02:29:32.038Z,-1.78
2024-01-08T02:34:34.937Z,-1.81
2024-01-08T02:39:37.470Z,-1.84
2024-01-08T02:44:39.347Z,-1.89
2024-01-08T02:49:41.290Z,-2.11
2024-01-08T02:54:43.293Z,-2.32
2024-01-08T02:59:45.191Z,-2.37
2024-01-08T03:04:47.251Z,-2.41
2024-01-08T03:09:50.320Z,-2.49
2024-01-08T03:14:53.212Z,-2.58
2024-01-08T03:19:55.398Z,-2.67
2024-01-08T03:24:57.607Z,-2.64
2024-01-08T03:29:59.553Z,-2.63
2024-01-08T03:35:02.016Z,-2.58
2024-01-08T03:40:06.177Z,-2.74
2024-01-08T03:45:10.656Z,-2.90
2024-01-08T03:50:12.870Z,-2.99
2024-01-08T03:55:14.953Z,-2.99
2024-01-08T04:00:17.513Z,-2.88
2024-01-08T04:05:19.718Z,-2.88
2024-01-08T04:10:22.392Z,-2.84
2024-01-08T04:15:24.769Z,-2.88
2024-01-08T04:20:26.871Z,-2.89
2024-01-08T04:25:28.983Z,-2.91
2024-01-08T04:30:31.118Z,-2.98
2024-01-08T04:35:33.656Z,-3.03
2024-01-08T04:40:36.000Z,-3.13
2024-01-08T04:45:38.237Z,-3.23
2024-01-08T04:50:40.396Z,-3.41
2024-01-08T04:55:42.692Z,-3.39
2024-01-08T05:00:44.872Z,-3.30
2024-01-08T05:05:47.021Z,-3.27
2024-01-08T05:10:49.561Z,-3.34
2024-01-08T05:15:51.599Z,-3.40
2024-01-08T05:20:53.748Z,-3.47
2024-01-08T05:26:00.794Z,-3.48
2024-01-08T05:31:04.042Z,-3.60
2024-01-08T05:36:06.753Z,-3.53
2024-01-08T05:41:08.994Z,-3.46
2024-01-08T05:46:11.642Z,-3.55
2024-01-08T05:51:13.877Z,-3.58
2024-01-08T05:56:15.967Z,-3.53
2024-01-08T06:01:21.365Z,-3.58
2024-01-08T06:06:23.807Z,-3.75
2024-01-08T06:11:26.080Z,-3.76
2024-01-08T06:16:32.430Z,-3.71
2024-01-08T06:21:34.465Z,-3.79
2024-01-08T06:26:36.757Z,-3.87
2024-01-08T06:31:39.046Z,-3.92
2024-01-08T06:36:41.516Z,-4.03
2024-01-08T06:41:44.386Z,-4.06
2024-01-08T06:46:47.813Z,-4.24
2024-01-08T06:51:50.399Z,-4.38
2024-01-08T06:56:52.488Z,-4.49
2024-01-08T07:01:55.592Z,-4.47
2024-01-08T07:06:57.675Z,-4.50
2024-01-08T07:12:00.698Z,-4.57
2024-01-08T07:17:02.939Z,-4.62
2024-01-08T07:22:05.576Z,-4.47
2024-01-08T07:27:09.527Z,-4.45
2024-01-08T07:32:12.508Z,-4.56
2024-01-08T07:37:15.013Z,-4.74
2024-01-08T07:42:17.244Z,-4.89
2024-01-08T07:47:19.804Z,-4.84
2024-01-08T07:52:28.004Z,-4.79
2024-01-08T07:57:37.196Z,-4.81
2024-01-08T08:02:43.847Z,-4.90
2024-01-08T08:07:46.083Z,-4.89
2024-01-08T08:12:48.019Z,-4.73
2024-01-08T08:17:52.074Z,-4.69
2024-01-08T08:22:54.912Z,-4.62
2024-01-08T08:27:56.893Z,-4.56
2024-01-08T08:33:00.670Z,-4.44
2024-01-08T08:38:03.276Z,-4.42
2024-01-08T08:43:07.464Z,-4.31
2024-01-08T08:48:11.178Z,-4.34
2024-01-08T08:53:13.320Z,-4.26
2024-01-08T08:58:15.737Z,-4.34
2024-01-08T09:03:18.467Z,-4.37
2024-01-08T09:08:29.849Z,-4.34
2024-01-08T09:13:32.005Z,-4.30
2024-01-08T09:18:34.048Z,-4.41
2024-01-08T09:23:38.763Z,-4.30
2024-01-08T09:28:40.875Z,-4.21
2024-01-08T09:33:45.794Z,-4.19
2024-01-08T09:38:48.242Z,-4.17
2024-01-08T09:43:52.104Z,-4.15
2024-01-08T09:48:58.064Z,-4.19
2024-01-08T09:54:01.617Z,-4.19
2024-01-08T09:59:03.995Z,-4.13
2024-01-08T10:04:06.498Z,-4.14
2024-01-08T10:09:09.218Z,-4.00
2024-01-08T10:14:12.172Z,-3.85
2024-01-08T10:19:17.082Z,-3.78
2024-01-08T10:24:26.028Z,-3.82
2024-01-08T10:29:30.705Z,-3.80
2024-01-08T10:34:37.725Z,-3.80
2024-01-08T10:39:48.154Z,-3.81
2024-01-08T10:44:53.640Z,-3.81
2024-01-08T10:50:00.684Z,-3.67
2024-01-08T10:55:04.090Z,-3.59
2024-01-08T11:00:11.157Z,-3.66
2024-01-08T11:05:15.704Z,-3.77
2024-01-08T11:10:19.725Z,-3.81
2024-01-08T11:15:25.171Z,-3.82
2024-01-08T11:20:48.785Z,-3.87
2024-01-08T11:25:55.452Z,-3.84
2024-01-08T11:31:33.086Z,-3.74
2024-01-08T11:36:49.908Z,-3.67
2024-01-08T11:41:52.308Z,-3.60
2024-01-08T11:46:57.676Z,-3.55
2024-01-08T11:52:04.887Z,-3.60
2024-01-08T11:57:07.274Z,-3.61
2024-01-08T12:02:12.841Z,-3.62
2024-01-08T12:07:14.974Z,-3.59
2024-01-08T12:12:18.974Z,-3.47
2024-01-08T12:17:22.227Z,-3.56
2024-01-08T12:22:26.865Z,-3.64
2024-01-08T12:27:32.215Z,-3.62
2024-01-08T12:32:34.594Z,-3.54
2024-01-08T12:37:36.819Z,-3.64
2024-01-08T12:42:38.823Z,-3.66
2024-01-08T12:47:40.998Z,-3.64
2024-01-08T12:52:43.366Z,-3.63
2024-01-08T12:57:46.551Z,-3.59
2024-01-08T13:02:48.628Z,-3.60
2024-01-08T13:07:50.806Z,-3.68
2024-01-08T13:12:52.826Z,-3.70
2024-01-08T13:17:54.994Z,-3.65
2024-01-08T13:22:57.774Z,-3.64
2024-01-08T13:28:00.169Z,-3.61
2024-01-08T13:33:02.251Z,-3.53
2024-01-08T13:38:04.567Z,-3.55
2024-01-08T13:43:08.289Z,-3.63
2024-01-08T13:48:11.319Z,-3.78
2024-01-08T13:53:13.780Z,-3.84
2024-01-08T13:58:16.063Z,-3.85
2024-01-08T14:03:19.593Z,-3.88
2024-01-08T14:08:22.008Z,-3.83
2024-01-08T14:13:23.936Z,-3.88
2024-01-08T14:18:26.421Z,-3.86
2024-01-08T14:23:30.080Z,-3.96
2024-01-08T14:28:32.403Z,-4.00
2024-01-08T14:33:34.577Z,-3.99
2024-01-08T14:38:37.001Z,-3.95
2024-01-08T14:43:39.397Z,-4.01
2024-01-08T14:48:41.651Z,-4.12
2024-01-08T14:53:46.064Z,-4.19
2024-01-08T14:58:48.518Z,-4.32
2024-01-08T15:03:50.741Z,-4.39
2024-01-08T15:08:54.511Z,-4.36
2024-01-08T15:13:56.820Z,-4.35
2024-01-08T15:18:59.006Z,-4.32
2024-01-08T15:24:01.317Z,-4.31
2024-01-08T15:29:05.921Z,-4.36
2024-01-08T15:34:08.174Z,-4.46
2024-01-08T15:39:15.691Z,-4.51
2024-01-08T15:44:18.231Z,-4.56
2024-01-08T15:49:20.351Z,-4.60
2024-01-08T15:54:24.762Z,-4.68
2024-01-08T15:59:26.878Z,-4.73
2024-01-08T16:04:29.241Z,-4.72
2024-01-08T16:09:32.615Z,-4.74
2024-01-08T16:14:34.969Z,-4.73
2024-01-08T16:19:37.103Z,-4.68
2024-01-08T16:24:39.119Z,-4.71
2024-01-08T16:29:41.273Z,-4.68
2024-01-08T16:34:49.592Z,-4.63
2024-01-08T16:40:00.711Z,-4.63
2024-01-08T16:45:02.700Z,-4.64
2024-01-08T16:50:05.026Z,-4.62
2024-01-08T16:55:07.627Z,-4.64
2024-01-08T17:00:12.208Z,-4.62
2024-01-08T17:05:14.867Z,-4.67
2024-01-08T17:10:17.754Z,-4.70
2024-01-08T17:15:19.992Z,-4.69
2024-01-08T17:20:22.079Z,-4.66
2024-01-08T17:25:24.314Z,-4.71
2024-01-08T17:30:26.291Z,-4.74
2024-01-08T17:35:28.632Z,-4.78
2024-01-08T17:40:31.181Z,-4.74
2024-01-08T17:45:33.407Z,-4.67
2024-01-08T17:50:39.176Z,-4.61
2024-01-08T17:55:41.587Z,-4.54
2024-01-08T18:00:44.109Z,-4.47
2024-01-08T18:05:49.095Z,-4.45
2024-01-08T18:10:52.230Z,-4.45
2024-01-08T18:15:54.272Z,-4.43
2024-01-08T18:20:57.541Z,-4.45
2024-01-08T18:25:59.689Z,-4.44
2024-01-08T18:31:02.727Z,-4.44
2024-01-08T18:36:06.316Z,-4.45
2024-01-08T18:41:08.503Z,-4.47
2024-01-08T18:46:10.895Z,-4.51
2024-01-08T18:51:12.896Z,-4.59
2024-01-08T18:56:14.954Z,-4.62
2024-01-08T19:01:17.875Z,-4.61
2024-01-08T19:06:20.029Z,-4.59
2024-01-08T19:11:22.045Z,-4.67
2024-01-08T19:16:23.996Z,-4.72
2024-01-08T19:21:26.069Z,-4.74
2024-01-08T19:26:28.611Z,-4.77
2024-01-08T19:31:31.668Z,-4.79
2024-01-08T19:36:33.752Z,-4.81
2024-01-08T19:41:36.162Z,-4.80
2024-01-08T19:46:38.435Z,-4.79
2024-01-08T19:51:41.768Z,-4.86
2024-01-08T19:56:46.351Z,-4.89
2024-01-08T20:01:48.678Z,-4.90
2024-01-08T20:06:50.811Z,-4.90
2024-01-08T20:11:53.000Z,-4.97
2024-01-08T20:16:55.199Z,-5.03
2024-01-08T20:21:57.345Z,-5.08
2024-01-08T20:27:00.951Z,-5.18
2024-01-08T20:32:07.303Z,-5.29
2024-01-08T20:37:09.593Z,-5.35
2024-01-08T20:42:11.534Z,-5.37
2024-01-08T20:47:14.547Z,-5.38
2024-01-08T20:52:16.684Z,-5.43
2024-01-08T20:57:21.726Z,-5.41
2024-01-08T21:02:23.737Z,-5.37
2024-01-08T21:07:25.750Z,-5.44
2024-01-08T21:12:27.950Z,-5.50
2024-01-08T21:17:30.240Z,-5.55
2024-01-08T21:22:33.297Z,-5.65
2024-01-08T21:27:35.321Z,-5.64
2024-01-08T21:32:39.190Z,-5.65
2024-01-08T21:37:42.441Z,-5.64
2024-01-08T21:42:45.420Z,-5.64
2024-01-08T21:47:47.768Z,-5.68
2024-01-08T21:52:50.402Z,-5.68
2024-01-08T21:57:52.281Z,-5.74
2024-01-08T22:02:54.752Z,-5.78
2024-01-08T22:07:57.933Z,-5.84
2024-01-08T22:13:00.199Z,-5.96
2024-01-08T22:18:02.537Z,-5.99
2024-01-08T22:23:05.051Z,-6.03
2024-01-08T22:28:07.178Z,-6.04
2024-01-08T22:33:12.655Z,-6.05
2024-01-08T22:38:15.186Z,-6.01
2024-01-08T22:43:17.222Z,-5.95
2024-01-08T22:48:19.232Z,-5.92
2024-01-08T22:53:21.619Z,-5.89
2024-01-08T22:58:23.666Z,-5.96
2024-01-08T23:03:26.118Z,-6.04
2024-01-08T23:08:28.266Z,-6.14
2024-01-08T23:13:30.304Z,-6.14
2024-01-08T23:18:35.314Z,-6.08
2024-01-08T23:23:37.528Z,-6.12
2024-01-08T23:28:39.578Z,-6.10
2024-01-08T23:33:41.798Z,-6.15
2024-01-08T23:38:44.800Z,-6.24
2024-01-08T23:43:46.970Z,-6.35
2024-01-08T23:48:49.197Z,-6.38
2024-01-08T23:53:51.637Z,-6.32
2024-01-08T23:58:53.595Z,-6.24
